Time;durP1;ratioP1;P1;durP2;ratioP2;P2;SDS_P1;SDS_P2;PMS_P1;PMS_P2;Temp;Humidity;BMP_temperature;BMP_pressure;BME280_temperature;BME280_humidity;BME280_pressure;Samples;Min_cycle;Max_cycle;Signal;HPM_P1;HPM_P2
2022/09/16 00:01:04;;;;;;;14.33;8.95;;;;;;;;;;1855411;76;21114;-82
2022/09/16 00:03:34;;;;;;;14.23;8.70;;;;;;;;;;1836947;76;21254;-80
2022/09/16 00:06:04;;;;;;;12.75;9.28;;;;;;;;;;1884302;74;21135;-80
2022/09/16 00:08:34;;;;;;;10.23;8.90;;;;;;;;;;1883486;74;21602;-81
2022/09/16 00:11:05;;;;;;;11.80;8.23;;;;;;;;;;1849296;75;21597;-82
2022/09/16 00:13:35;;;;;;;10.72;9.20;;;;;;;;;;1915701;73;21148;-81
2022/09/16 00:16:07;;;;;;;13.15;9.38;;;;;;;;;;1899733;74;21069;-80
2022/09/16 00:18:37;;;;;;;11.43;8.98;;;;;;;;;;1897582;74;21165;-80
2022/09/16 00:21:08;;;;;;;11.88;8.73;;;;;;;;;;1901438;74;21096;-81
2022/09/16 00:23:39;;;;;;;10.85;8.23;;;;;;;;;;1904019;74;21190;-81
2022/09/16 00:26:09;;;;;;;10.30;7.72;;;;;;;;;;1903435;74;21154;-82
2022/09/16 00:28:39;;;;;;;12.15;8.50;;;;;;;;;;1899812;74;21143;-80
2022/09/16 00:31:14;;;;;;;9.60;7.45;;;;;;;;;;1898182;74;21155;-81
2022/09/16 00:33:41;;;;;;;9.33;7.08;;;;;;;;;;1890437;74;21153;-81
2022/09/16 00:36:13;;;;;;;7.65;6.95;;;;;;;;;;1899733;74;21139;-81
2022/09/16 00:38:43;;;;;;;10.25;7.20;;;;;;;;;;1882063;74;21155;-81
2022/09/16 00:41:15;;;;;;;10.45;6.90;;;;;;;;;;1902386;74;21816;-81
2022/09/16 00:43:46;;;;;;;11.30;7.20;;;;;;;;;;1896672;74;21142;-81
2022/09/16 00:46:18;;;;;;;9.73;6.12;;;;;;;;;;1901981;74;21144;-82
2022/09/16 00:48:49;;;;;;;10.40;6.72;;;;;;;;;;1903107;74;21139;-80
2022/09/16 00:51:20;;;;;;;7.47;6.05;;;;;;;;;;1891027;74;21143;-82
2022/09/16 00:53:51;;;;;;;12.78;6.53;;;;;;;;;;1900476;74;21159;-81
2022/09/16 00:56:24;;;;;;;9.30;5.30;;;;;;;;;;1902117;74;21258;-81
2022/09/16 00:58:55;;;;;;;8.38;5.60;;;;;;;;;;1905384;74;21571;-82
2022/09/16 01:01:26;;;;;;;9.40;4.92;;;;;;;;;;1908608;74;21159;-81
2022/09/16 01:03:57;;;;;;;12.47;5.95;;;;;;;;;;1898516;74;21128;-81
2022/09/16 01:06:28;;;;;;;7.35;5.03;;;;;;;;;;1901131;74;21171;-80
2022/09/16 01:08:59;;;;;;;6.75;4.90;;;;;;;;;;1898121;74;22046;-80
2022/09/16 01:11:29;;;;;;;6.53;4.60;;;;;;;;;;1903576;74;21177;-81
2022/09/16 01:14:52;;;;;;;5.87;4.33;;;;;;;;;;1903872;73;21120;-82
2022/09/16 01:16:33;;;;;;;8.00;4.60;;;;;;;;;;1902613;73;21158;-80
2022/09/16 01:19:04;;;;;;;5.40;4.50;;;;;;;;;;1898802;74;21547;-82
2022/09/16 01:21:37;;;;;;;5.15;4.17;;;;;;;;;;1896615;74;21146;-82
2022/09/16 01:24:07;;;;;;;6.28;4.10;;;;;;;;;;1902909;73;21914;-73
2022/09/16 01:26:37;;;;;;;8.40;4.15;;;;;;;;;;1872269;76;21271;-74
2022/09/16 01:29:08;;;;;;;7.55;4.12;;;;;;;;;;1897052;74;21175;-74
2022/09/16 01:31:38;;;;;;;9.20;4.17;;;;;;;;;;1901690;74;21162;-72
2022/09/16 01:34:10;;;;;;;6.87;3.58;;;;;;;;;;1903799;74;21194;-73
2022/09/16 01:36:39;;;;;;;4.08;3.60;;;;;;;;;;1898829;74;21163;-73
2022/09/16 01:39:11;;;;;;;5.30;4.08;;;;;;;;;;1894007;73;21113;-74
2022/09/16 01:41:42;;;;;;;6.05;3.62;;;;;;;;;;1894749;74;21110;-73
2022/09/16 01:44:15;;;;;;;5.08;3.67;;;;;;;;;;1894255;73;21157;-73
2022/09/16 01:46:46;;;;;;;5.92;4.00;;;;;;;;;;1890422;73;21530;-72
2022/09/16 01:49:18;;;;;;;5.80;3.70;;;;;;;;;;1894239;73;21122;-73
2022/09/16 01:51:49;;;;;;;8.58;4.10;;;;;;;;;;1891976;73;21139;-72
2022/09/16 01:54:20;;;;;;;5.70;3.90;;;;;;;;;;1882313;73;21114;-72
2022/09/16 01:56:52;;;;;;;7.08;3.98;;;;;;;;;;1889617;74;21180;-72
2022/09/16 01:59:26;;;;;;;5.87;3.27;;;;;;;;;;1908363;73;21736;-72
2022/09/16 02:01:58;;;;;;;4.87;3.52;;;;;;;;;;1903222;74;21134;-73
2022/09/16 02:04:30;;;;;;;4.50;3.42;;;;;;;;;;1899958;73;21228;-71
2022/09/16 02:07:02;;;;;;;5.45;3.95;;;;;;;;;;1893848;73;21119;-72
2022/09/16 02:09:34;;;;;;;6.42;3.55;;;;;;;;;;1908003;73;21095;-73
2022/09/16 02:12:05;;;;;;;4.90;3.33;;;;;;;;;;1902933;74;21650;-74
2022/09/16 02:14:37;;;;;;;7.50;3.70;;;;;;;;;;1831098;76;21191;-72
2022/09/16 02:17:08;;;;;;;5.30;3.33;;;;;;;;;;1861358;75;21188;-73
2022/09/16 02:19:40;;;;;;;6.37;3.35;;;;;;;;;;1860437;75;21173;-74
2022/09/16 02:22:11;;;;;;;6.72;3.40;;;;;;;;;;1852655;76;21173;-74
2022/09/16 02:24:43;;;;;;;4.45;2.98;;;;;;;;;;1850694;76;21169;-73
2022/09/16 02:27:15;;;;;;;9.20;2.98;;;;;;;;;;1864294;76;21647;-73
2022/09/16 02:29:47;;;;;;;5.83;3.83;;;;;;;;;;1860899;75;21169;-72
2022/09/16 02:32:18;;;;;;;4.97;3.50;;;;;;;;;;1866174;75;21100;-72
2022/09/16 02:34:50;;;;;;;4.37;2.67;;;;;;;;;;1859249;75;21517;-72
2022/09/16 02:37:24;;;;;;;4.83;2.92;;;;;;;;;;1783687;79;21812;-72
2022/09/16 02:39:56;;;;;;;4.15;2.45;;;;;;;;;;1861404;76;21059;-72
2022/09/16 02:42:28;;;;;;;5.08;3.62;;;;;;;;;;1850908;75;21123;-72
2022/09/16 02:45:02;;;;;;;6.15;3.12;;;;;;;;;;1815248;78;21110;-73
2022/09/16 02:47:33;;;;;;;4.15;2.83;;;;;;;;;;1768562;80;21632;-73
2022/09/16 02:50:04;;;;;;;4.70;3.20;;;;;;;;;;1850913;75;21131;-72
2022/09/16 02:52:35;;;;;;;7.20;3.15;;;;;;;;;;1849802;76;21182;-73
2022/09/16 02:55:10;;;;;;;5.08;3.30;;;;;;;;;;1845004;75;21080;-74
2022/09/16 02:57:42;;;;;;;4.67;3.27;;;;;;;;;;1848155;76;21138;-72
2022/09/16 03:00:12;;;;;;;5.50;3.27;;;;;;;;;;1844380;75;21106;-73
2022/09/16 03:02:42;;;;;;;4.53;3.15;;;;;;;;;;1862949;76;21130;-73
2022/09/16 03:05:13;;;;;;;4.22;3.22;;;;;;;;;;1856516;75;21166;-71
2022/09/16 03:07:43;;;;;;;5.83;2.92;;;;;;;;;;1859393;75;21138;-71
2022/09/16 03:10:13;;;;;;;11.35;3.25;;;;;;;;;;1866864;76;21578;-71
2022/09/16 03:12:45;;;;;;;5.55;3.17;;;;;;;;;;1855581;76;21189;-71
2022/09/16 03:15:18;;;;;;;5.67;2.80;;;;;;;;;;1812768;78;21093;-72
2022/09/16 03:17:49;;;;;;;5.25;2.90;;;;;;;;;;1804143;78;21138;-71
2022/09/16 03:20:21;;;;;;;4.72;2.60;;;;;;;;;;1820078;77;21092;-73
2022/09/16 03:22:52;;;;;;;5.50;2.67;;;;;;;;;;1871458;76;21250;-73
2022/09/16 03:25:24;;;;;;;6.28;2.65;;;;;;;;;;1827380;77;21195;-73
2022/09/16 03:27:56;;;;;;;4.17;2.60;;;;;;;;;;1825048;77;21195;-73
2022/09/16 03:30:26;;;;;;;4.30;2.42;;;;;;;;;;1822146;77;21080;-74
2022/09/16 03:33:01;;;;;;;3.17;2.30;;;;;;;;;;1820144;77;21113;-73
2022/09/16 03:35:32;;;;;;;4.12;2.20;;;;;;;;;;1818439;77;21167;-73
2022/09/16 03:38:03;;;;;;;3.35;2.20;;;;;;;;;;1839749;76;21158;-73
2022/09/16 03:40:38;;;;;;;4.30;2.33;;;;;;;;;;1870901;76;21122;-73
2022/09/16 03:43:09;;;;;;;4.40;2.40;;;;;;;;;;1837338;78;21129;-73
2022/09/16 03:45:43;;;;;;;7.35;2.20;;;;;;;;;;1877672;75;21200;-73
2022/09/16 03:48:14;;;;;;;4.17;2.08;;;;;;;;;;1831250;78;21212;-73
2022/09/16 03:50:44;;;;;;;4.72;2.00;;;;;;;;;;1811493;78;21177;-73
2022/09/16 03:53:15;;;;;;;3.27;2.27;;;;;;;;;;1889579;74;21147;-73
2022/09/16 03:55:47;;;;;;;3.12;2.10;;;;;;;;;;1881066;74;21218;-71
2022/09/16 03:58:21;;;;;;;5.67;2.20;;;;;;;;;;1881002;74;21107;-73
2022/09/16 04:00:51;;;;;;;3.85;2.10;;;;;;;;;;1881579;75;21180;-73
2022/09/16 04:03:22;;;;;;;3.80;2.35;;;;;;;;;;1881652;76;21223;-72
2022/09/16 04:05:54;;;;;;;3.22;2.30;;;;;;;;;;1884440;74;21686;-72
2022/09/16 04:08:28;;;;;;;2.95;2.15;;;;;;;;;;1882057;74;21114;-72
2022/09/16 04:10:55;;;;;;;3.92;2.20;;;;;;;;;;1890365;74;21127;-72
2022/09/16 04:13:29;;;;;;;4.28;2.10;;;;;;;;;;1886458;74;21172;-72
2022/09/16 04:16:02;;;;;;;3.95;2.15;;;;;;;;;;1891059;74;21065;-72
2022/09/16 04:18:35;;;;;;;4.33;2.27;;;;;;;;;;1901588;74;21178;-72
2022/09/16 04:21:06;;;;;;;3.98;2.35;;;;;;;;;;1913496;74;21170;-72
2022/09/16 04:23:36;;;;;;;3.80;2.17;;;;;;;;;;1908077;74;21159;-72
2022/09/16 04:26:08;;;;;;;3.45;2.10;;;;;;;;;;1901818;74;21223;-72
2022/09/16 04:28:38;;;;;;;3.45;2.37;;;;;;;;;;1894034;74;21221;-72
2022/09/16 04:31:10;;;;;;;2.92;1.98;;;;;;;;;;1904886;74;21502;-72
2022/09/16 04:33:41;;;;;;;4.62;2.40;;;;;;;;;;1898561;74;21666;-72
2022/09/16 04:36:13;;;;;;;2.55;2.10;;;;;;;;;;1902584;74;21075;-72
2022/09/16 04:38:43;;;;;;;3.17;1.80;;;;;;;;;;1883822;74;21632;-72
2022/09/16 04:41:14;;;;;;;4.00;2.10;;;;;;;;;;1907597;74;21139;-71
2022/09/16 04:43:45;;;;;;;6.53;2.12;;;;;;;;;;1896460;74;21162;-72
2022/09/16 04:46:15;;;;;;;4.37;2.17;;;;;;;;;;1855749;76;21155;-72
2022/09/16 04:48:49;;;;;;;4.20;2.02;;;;;;;;;;1845553;75;21141;-74
2022/09/16 04:51:21;;;;;;;3.17;1.70;;;;;;;;;;1814626;77;21088;-72
2022/09/16 04:53:51;;;;;;;4.65;2.00;;;;;;;;;;1886077;74;21107;-71
2022/09/16 04:56:24;;;;;;;3.40;1.60;;;;;;;;;;1882743;75;21183;-72
2022/09/16 04:58:56;;;;;;;5.58;2.10;;;;;;;;;;1890747;75;21193;-72
2022/09/16 05:01:29;;;;;;;3.27;1.75;;;;;;;;;;1892823;74;21236;-73
2022/09/16 05:04:01;;;;;;;3.83;2.00;;;;;;;;;;1893873;75;21144;-72
2022/09/16 05:06:33;;;;;;;3.33;2.58;;;;;;;;;;1897129;74;21142;-70
2022/09/16 05:09:03;;;;;;;2.72;1.90;;;;;;;;;;1899938;75;21599;-72
2022/09/16 05:11:35;;;;;;;3.37;1.80;;;;;;;;;;1901555;75;21092;-72
2022/09/16 05:14:06;;;;;;;2.77;2.02;;;;;;;;;;1887084;74;21119;-72
2022/09/16 05:16:40;;;;;;;3.58;2.12;;;;;;;;;;1892974;75;21096;-72
2022/09/16 05:19:17;;;;;;;4.72;2.55;;;;;;;;;;1891673;75;21158;-71
2022/09/16 05:21:44;;;;;;;4.03;2.10;;;;;;;;;;1888478;75;21084;-72
2022/09/16 05:24:14;;;;;;;2.58;1.60;;;;;;;;;;1890870;75;21235;-71
2022/09/16 05:26:45;;;;;;;3.90;1.90;;;;;;;;;;1899484;75;21637;-71
2022/09/16 05:29:16;;;;;;;4.17;1.80;;;;;;;;;;1901160;75;21196;-71
2022/09/16 05:31:46;;;;;;;2.80;1.80;;;;;;;;;;1852072;76;21112;-72
2022/09/16 05:34:17;;;;;;;4.33;1.95;;;;;;;;;;1833716;77;21153;-72
2022/09/16 05:36:49;;;;;;;3.58;2.15;;;;;;;;;;1818505;77;21171;-72
2022/09/16 05:39:19;;;;;;;2.92;1.85;;;;;;;;;;1827178;77;21197;-72
2022/09/16 05:41:53;;;;;;;5.22;1.70;;;;;;;;;;1809300;77;21547;-71
2022/09/16 05:44:23;;;;;;;2.52;1.67;;;;;;;;;;1898753;75;21698;-72
2022/09/16 05:46:54;;;;;;;2.87;2.00;;;;;;;;;;1892211;75;21683;-72
2022/09/16 05:49:24;;;;;;;5.85;2.40;;;;;;;;;;1894861;74;21541;-72
2022/09/16 05:51:55;;;;;;;2.95;1.60;;;;;;;;;;1896306;74;21113;-72
2022/09/16 05:54:25;;;;;;;1.95;1.37;;;;;;;;;;1812889;77;21694;-72
2022/09/16 05:56:56;;;;;;;2.60;1.52;;;;;;;;;;1834945;77;21196;-72
2022/09/16 05:59:26;;;;;;;3.08;1.77;;;;;;;;;;1842359;76;21692;-72
2022/09/16 06:01:56;;;;;;;3.98;1.50;;;;;;;;;;1847573;76;21738;-72
2022/09/16 06:04:26;;;;;;;3.22;1.55;;;;;;;;;;1894035;74;21688;-72
2022/09/16 06:06:56;;;;;;;2.35;1.35;;;;;;;;;;1858093;77;21219;-71
2022/09/16 06:09:27;;;;;;;5.50;1.82;;;;;;;;;;1827806;77;21221;-72
2022/09/16 06:11:57;;;;;;;3.60;1.60;;;;;;;;;;1823825;78;21199;-71
2022/09/16 06:14:29;;;;;;;2.52;1.50;;;;;;;;;;1853825;76;21163;-71
2022/09/16 06:17:00;;;;;;;4.00;1.80;;;;;;;;;;1903128;74;21084;-71
2022/09/16 06:19:30;;;;;;;2.40;1.50;;;;;;;;;;1902143;75;21225;-71
2022/09/16 06:22:00;;;;;;;3.12;1.62;;;;;;;;;;1905827;75;21119;-72
2022/09/16 06:24:30;;;;;;;3.65;1.67;;;;;;;;;;1819190;78;21187;-71
2022/09/16 06:27:01;;;;;;;3.17;1.70;;;;;;;;;;1842623;76;21596;-69
2022/09/16 06:29:31;;;;;;;11.12;2.92;;;;;;;;;;1863163;77;21136;-72
2022/09/16 06:32:01;;;;;;;3.58;1.95;;;;;;;;;;1828861;78;22316;-72
2022/09/16 06:34:31;;;;;;;3.00;1.77;;;;;;;;;;1862241;77;21129;-72
2022/09/16 06:37:02;;;;;;;5.30;1.80;;;;;;;;;;1849810;77;21154;-71
2022/09/16 06:39:32;;;;;;;3.85;1.70;;;;;;;;;;1861861;76;21215;-70
2022/09/16 06:42:03;;;;;;;4.35;1.57;;;;;;;;;;1845849;77;21201;-70
2022/09/16 06:44:33;;;;;;;3.27;1.95;;;;;;;;;;1830247;77;21183;-71
2022/09/16 06:47:04;;;;;;;3.70;1.62;;;;;;;;;;1841284;77;21073;-72
2022/09/16 06:49:34;;;;;;;4.40;1.50;;;;;;;;;;1846647;77;21145;-72
2022/09/16 06:52:05;;;;;;;7.10;2.10;;;;;;;;;;1829958;77;21168;-71
2022/09/16 06:54:35;;;;;;;3.05;1.72;;;;;;;;;;1902355;74;21427;-71
2022/09/16 06:57:06;;;;;;;4.25;2.00;;;;;;;;;;1897956;74;21175;-73
2022/09/16 06:59:37;;;;;;;3.47;1.50;;;;;;;;;;1903665;74;21117;-73
2022/09/16 07:02:09;;;;;;;3.67;1.70;;;;;;;;;;1894363;74;21100;-73
2022/09/16 07:04:39;;;;;;;4.90;1.80;;;;;;;;;;1895080;74;21629;-72
2022/09/16 07:07:10;;;;;;;3.52;2.02;;;;;;;;;;1904965;75;21134;-71
2022/09/16 07:09:40;;;;;;;2.92;1.50;;;;;;;;;;1905279;74;21212;-72
2022/09/16 07:12:10;;;;;;;3.62;1.98;;;;;;;;;;1897505;74;21159;-70
2022/09/16 07:14:41;;;;;;;5.62;1.82;;;;;;;;;;1888635;74;21512;-71
2022/09/16 07:17:12;;;;;;;4.12;2.40;;;;;;;;;;1904996;75;21605;-71
2022/09/16 07:19:43;;;;;;;4.03;1.72;;;;;;;;;;1857121;76;21186;-71
2022/09/16 07:22:13;;;;;;;3.92;1.35;;;;;;;;;;1874445;75;21127;-71
2022/09/16 07:24:44;;;;;;;3.80;1.60;;;;;;;;;;1910656;73;21150;-71
2022/09/16 07:27:15;;;;;;;3.60;1.40;;;;;;;;;;1897012;74;21625;-71
2022/09/16 07:29:45;;;;;;;3.35;1.32;;;;;;;;;;1891874;74;21158;-72
2022/09/16 07:32:16;;;;;;;2.12;1.30;;;;;;;;;;1865313;74;21145;-72
2022/09/16 07:34:46;;;;;;;2.87;1.60;;;;;;;;;;1874209;74;21178;-72
2022/09/16 07:37:18;;;;;;;2.98;1.32;;;;;;;;;;1894633;74;21586;-72
2022/09/16 07:39:49;;;;;;;6.03;1.90;;;;;;;;;;1896055;74;21159;-72
2022/09/16 07:42:19;;;;;;;3.60;1.55;;;;;;;;;;1900156;74;21155;-71
2022/09/16 07:44:49;;;;;;;3.72;1.17;;;;;;;;;;1894679;74;21103;-71
2022/09/16 07:47:20;;;;;;;2.37;1.30;;;;;;;;;;1878159;74;21075;-71
2022/09/16 07:49:54;;;;;;;1.57;0.70;;;;;;;;;;1908207;73;21579;-71
2022/09/16 07:52:28;;;;;;;2.02;1.00;;;;;;;;;;1902525;75;21177;-71
2022/09/16 07:54:55;;;;;;;2.22;1.10;;;;;;;;;;1893522;74;21147;-71
2022/09/16 07:57:27;;;;;;;1.87;0.90;;;;;;;;;;1887473;75;21622;-72
2022/09/16 07:59:56;;;;;;;3.62;0.80;;;;;;;;;;1894253;74;21122;-72
2022/09/16 08:02:27;;;;;;;3.40;0.70;;;;;;;;;;1843201;77;21451;-71
2022/09/16 08:04:57;;;;;;;2.20;0.90;;;;;;;;;;1831359;76;21592;-71
2022/09/16 08:07:27;;;;;;;2.95;0.90;;;;;;;;;;1852528;77;21247;-70
2022/09/16 08:09:58;;;;;;;1.92;0.82;;;;;;;;;;1848919;76;21048;-71
2022/09/16 08:12:34;;;;;;;2.10;0.90;;;;;;;;;;1843120;77;21576;-71
2022/09/16 08:15:01;;;;;;;3.27;1.70;;;;;;;;;;1843581;77;21160;-71
2022/09/16 08:17:31;;;;;;;4.15;1.30;;;;;;;;;;1843337;76;21169;-70
2022/09/16 08:20:04;;;;;;;1.90;0.70;;;;;;;;;;1846698;77;21091;-71
2022/09/16 08:22:34;;;;;;;3.35;1.32;;;;;;;;;;1847691;76;21831;-70
2022/09/16 08:25:05;;;;;;;4.78;1.17;;;;;;;;;;1830370;77;21218;-70
2022/09/16 08:27:36;;;;;;;2.55;1.30;;;;;;;;;;1818370;77;21211;-70
2022/09/16 08:30:07;;;;;;;4.83;1.65;;;;;;;;;;1815474;77;21210;-70
2022/09/16 08:32:38;;;;;;;2.22;1.10;;;;;;;;;;1814258;77;21171;-71
2022/09/16 08:35:08;;;;;;;3.42;1.40;;;;;;;;;;1806092;77;21202;-71
2022/09/16 08:37:38;;;;;;;2.98;1.50;;;;;;;;;;1811048;79;21202;-71
2022/09/16 08:40:10;;;;;;;4.12;1.62;;;;;;;;;;1805980;79;21249;-71
2022/09/16 08:42:41;;;;;;;2.40;1.50;;;;;;;;;;1809631;79;21069;-71
2022/09/16 08:45:13;;;;;;;4.08;1.60;;;;;;;;;;1800255;78;21138;-72
2022/09/16 08:47:47;;;;;;;2.70;1.40;;;;;;;;;;1835212;77;21669;-71
2022/09/16 08:50:18;;;;;;;4.30;1.62;;;;;;;;;;1866484;76;21155;-71
2022/09/16 08:52:50;;;;;;;2.30;1.37;;;;;;;;;;1877502;75;21201;-71
2022/09/16 08:55:22;;;;;;;5.83;1.60;;;;;;;;;;1874376;75;21514;-71
2022/09/16 08:57:53;;;;;;;2.10;1.30;;;;;;;;;;1871985;75;21131;-71
2022/09/16 09:00:24;;;;;;;4.78;1.42;;;;;;;;;;1874023;76;21209;-71
2022/09/16 09:02:55;;;;;;;3.70;1.70;;;;;;;;;;1877255;75;21658;-71
2022/09/16 09:05:25;;;;;;;4.72;1.72;;;;;;;;;;1874980;75;21244;-72
2022/09/16 09:07:56;;;;;;;4.10;1.45;;;;;;;;;;1875437;76;21080;-72
2022/09/16 09:10:28;;;;;;;3.12;0.82;;;;;;;;;;1866452;75;21174;-72
2022/09/16 09:12:59;;;;;;;4.05;1.17;;;;;;;;;;1868472;76;21150;-72
2022/09/16 09:15:31;;;;;;;2.75;1.07;;;;;;;;;;1875908;75;21607;-71
2022/09/16 09:18:03;;;;;;;3.85;1.02;;;;;;;;;;1883409;74;21193;-71
2022/09/16 09:20:33;;;;;;;3.70;0.93;;;;;;;;;;1888451;74;21179;-71
2022/09/16 09:23:05;;;;;;;3.27;1.02;;;;;;;;;;1888716;76;21748;-71
2022/09/16 09:25:36;;;;;;;2.12;0.80;;;;;;;;;;1886758;75;21237;-71
2022/09/16 09:28:07;;;;;;;1.90;0.90;;;;;;;;;;1880691;75;21153;-72
2022/09/16 09:30:39;;;;;;;2.87;0.70;;;;;;;;;;1890551;75;21103;-72
2022/09/16 09:33:10;;;;;;;3.65;1.10;;;;;;;;;;1885820;76;21217;-72
2022/09/16 09:35:46;;;;;;;4.20;0.60;;;;;;;;;;1890212;75;21154;-72
2022/09/16 09:38:15;;;;;;;3.70;1.25;;;;;;;;;;1885775;76;21657;-72
2022/09/16 09:40:47;;;;;;;4.03;0.70;;;;;;;;;;1888776;75;21134;-71
2022/09/16 09:43:16;;;;;;;2.50;0.80;;;;;;;;;;1883550;75;21174;-71
2022/09/16 09:45:48;;;;;;;3.70;1.00;;;;;;;;;;1846335;77;21134;-71
2022/09/16 09:48:18;;;;;;;3.90;1.12;;;;;;;;;;1874065;75;21067;-72
2022/09/16 09:50:49;;;;;;;2.33;0.90;;;;;;;;;;1885079;74;21139;-71
2022/09/16 09:53:22;;;;;;;2.87;1.05;;;;;;;;;;1868570;75;21158;-72
2022/09/16 09:55:54;;;;;;;2.62;0.85;;;;;;;;;;1879372;75;22158;-72
2022/09/16 09:58:25;;;;;;;3.77;0.90;;;;;;;;;;1889610;76;21078;-71
2022/09/16 10:00:56;;;;;;;3.08;0.98;;;;;;;;;;1829135;77;21239;-71
2022/09/16 10:03:27;;;;;;;1.85;0.88;;;;;;;;;;1881148;74;21220;-71
2022/09/16 10:05:58;;;;;;;3.65;1.07;;;;;;;;;;1888909;76;21076;-71
2022/09/16 10:08:29;;;;;;;3.45;1.62;;;;;;;;;;1890869;75;21178;-71
2022/09/16 10:11:01;;;;;;;2.90;1.50;;;;;;;;;;1886822;75;21524;-71
2022/09/16 10:13:32;;;;;;;4.25;1.10;;;;;;;;;;1867251;75;21224;-71
2022/09/16 10:16:03;;;;;;;5.37;1.60;;;;;;;;;;1850471;77;21150;-71
2022/09/16 10:18:34;;;;;;;3.75;1.20;;;;;;;;;;1878560;75;21143;-71
2022/09/16 10:21:05;;;;;;;2.00;0.80;;;;;;;;;;1893401;74;21134;-71
2022/09/16 10:23:37;;;;;;;2.45;0.80;;;;;;;;;;1894162;74;21119;-71
2022/09/16 10:26:09;;;;;;;2.52;0.82;;;;;;;;;;1898718;75;21199;-72
2022/09/16 10:28:39;;;;;;;4.40;1.30;;;;;;;;;;1891485;75;21090;-72
2022/09/16 10:31:10;;;;;;;4.50;1.15;;;;;;;;;;1893341;75;21177;-71
2022/09/16 10:33:42;;;;;;;2.70;1.00;;;;;;;;;;1893365;74;21266;-70
2022/09/16 10:36:14;;;;;;;6.35;1.55;;;;;;;;;;1888285;75;21921;-72
2022/09/16 10:38:46;;;;;;;3.92;1.00;;;;;;;;;;1893096;75;21191;-73
2022/09/16 10:41:18;;;;;;;2.80;0.93;;;;;;;;;;1892152;75;21173;-72
2022/09/16 10:43:50;;;;;;;2.42;0.93;;;;;;;;;;1897326;75;21159;-71
2022/09/16 10:46:20;;;;;;;2.75;0.90;;;;;;;;;;1888865;75;21187;-72
2022/09/16 10:48:53;;;;;;;5.55;1.50;;;;;;;;;;1895445;75;21162;-72
2022/09/16 10:51:24;;;;;;;3.22;1.32;;;;;;;;;;1892158;75;21129;-72
2022/09/16 10:53:56;;;;;;;4.42;1.10;;;;;;;;;;1895395;75;21125;-72
2022/09/16 10:56:30;;;;;;;5.55;1.30;;;;;;;;;;1896517;74;21720;-72
2022/09/16 10:59:00;;;;;;;2.40;1.00;;;;;;;;;;1891767;74;21144;-72
2022/09/16 11:01:32;;;;;;;3.58;1.20;;;;;;;;;;1888706;75;21539;-72
2022/09/16 11:04:05;;;;;;;2.83;1.22;;;;;;;;;;1896565;74;21184;-72
2022/09/16 11:06:36;;;;;;;4.65;1.60;;;;;;;;;;1899858;75;21576;-72
2022/09/16 11:09:08;;;;;;;4.92;1.57;;;;;;;;;;1894751;75;21135;-71
2022/09/16 11:11:37;;;;;;;6.10;1.75;;;;;;;;;;1898515;75;21121;-72
2022/09/16 11:14:09;;;;;;;4.72;1.40;;;;;;;;;;1896779;74;21173;-71
2022/09/16 11:16:40;;;;;;;4.22;1.75;;;;;;;;;;1896902;75;21083;-72
2022/09/16 11:19:15;;;;;;;7.97;1.40;;;;;;;;;;1868353;75;21162;-81
